sensor_id;sensor_type;location;lat;lon;timestamp;temperature;humidity
67557;DHT22;54387;53.526;49.300;2023-04-25T00:02:15;14.60;41.90
67557;DHT22;54387;53.526;49.300;2023-04-25T00:04:41;14.60;41.90
67557;DHT22;54387;53.526;49.300;2023-04-25T00:07:07;14.70;41.80
67557;DHT22;54387;53.526;49.300;2023-04-25T00:09:33;14.70;41.70
67557;DHT22;54387;53.526;49.300;2023-04-25T00:12:00;14.70;41.60
67557;DHT22;54387;53.526;49.300;2023-04-25T00:14:27;14.70;41.50
67557;DHT22;54387;53.526;49.300;2023-04-25T00:16:53;14.80;41.50
67557;DHT22;54387;53.526;49.300;2023-04-25T00:19:20;14.80;41.40
67557;DHT22;54387;53.526;49.300;2023-04-25T00:21:46;14.80;41.30
67557;DHT22;54387;53.526;49.300;2023-04-25T00:24:13;14.80;41.30
67557;DHT22;54387;53.526;49.300;2023-04-25T00:26:39;14.80;41.30
67557;DHT22;54387;53.526;49.300;2023-04-25T00:29:05;14.80;41.20
67557;DHT22;54387;53.526;49.300;2023-04-25T00:31:31;14.80;41.20
67557;DHT22;54387;53.526;49.300;2023-04-25T00:33:58;14.80;41.20
67557;DHT22;54387;53.526;49.300;2023-04-25T00:36:24;14.80;41.20
67557;DHT22;54387;53.526;49.300;2023-04-25T00:38:50;14.80;41.20
67557;DHT22;54387;53.526;49.300;2023-04-25T00:41:16;14.80;41.20
67557;DHT22;54387;53.526;49.300;2023-04-25T00:43:43;14.80;41.10
67557;DHT22;54387;53.526;49.300;2023-04-25T00:46:10;14.80;41.20
67557;DHT22;54387;53.526;49.300;2023-04-25T00:48:36;14.80;41.30
67557;DHT22;54387;53.526;49.300;2023-04-25T00:51:02;14.80;41.20
67557;DHT22;54387;53.526;49.300;2023-04-25T00:53:28;14.80;41.30
67557;DHT22;54387;53.526;49.300;2023-04-25T00:55:54;14.80;41.30
67557;DHT22;54387;53.526;49.300;2023-04-25T00:58:21;14.80;41.30
67557;DHT22;54387;53.526;49.300;2023-04-25T01:00:48;14.80;41.30
67557;DHT22;54387;53.526;49.300;2023-04-25T01:03:17;14.80;41.30
67557;DHT22;54387;53.526;49.300;2023-04-25T01:05:45;14.80;41.30
67557;DHT22;54387;53.526;49.300;2023-04-25T01:08:11;14.80;41.40
67557;DHT22;54387;53.526;49.300;2023-04-25T01:10:38;14.80;41.50
67557;DHT22;54387;53.526;49.300;2023-04-25T01:13:04;14.80;41.40
67557;DHT22;54387;53.526;49.300;2023-04-25T01:15:30;14.80;41.60
67557;DHT22;54387;53.526;49.300;2023-04-25T01:17:56;14.80;41.50
67557;DHT22;54387;53.526;49.300;2023-04-25T01:20:25;14.90;41.50
67557;DHT22;54387;53.526;49.300;2023-04-25T01:22:54;14.90;41.50
67557;DHT22;54387;53.526;49.300;2023-04-25T01:25:21;14.90;41.50
67557;DHT22;54387;53.526;49.300;2023-04-25T01:27:47;14.90;41.50
67557;DHT22;54387;53.526;49.300;2023-04-25T01:30:14;14.80;41.50
67557;DHT22;54387;53.526;49.300;2023-04-25T01:32:41;14.80;41.50
67557;DHT22;54387;53.526;49.300;2023-04-25T01:35:08;14.80;41.60
67557;DHT22;54387;53.526;49.300;2023-04-25T01:37:41;14.80;41.60
67557;DHT22;54387;53.526;49.300;2023-04-25T01:40:08;14.80;41.70
67557;DHT22;54387;53.526;49.300;2023-04-25T01:42:35;14.80;41.70
67557;DHT22;54387;53.526;49.300;2023-04-25T01:45:02;14.80;41.70
67557;DHT22;54387;53.526;49.300;2023-04-25T01:47:28;14.80;41.80
67557;DHT22;54387;53.526;49.300;2023-04-25T01:49:55;14.80;41.70
67557;DHT22;54387;53.526;49.300;2023-04-25T01:52:21;14.80;41.70
67557;DHT22;54387;53.526;49.300;2023-04-25T01:54:47;14.80;41.80
67557;DHT22;54387;53.526;49.300;2023-04-25T01:57:15;14.80;41.80
67557;DHT22;54387;53.526;49.300;2023-04-25T01:59:41;14.80;41.90
67557;DHT22;54387;53.526;49.300;2023-04-25T02:02:08;14.90;42.00
67557;DHT22;54387;53.526;49.300;2023-04-25T02:04:34;14.90;42.00
67557;DHT22;54387;53.526;49.300;2023-04-25T02:07:00;14.90;42.00
67557;DHT22;54387;53.526;49.300;2023-04-25T02:09:27;14.90;42.10
67557;DHT22;54387;53.526;49.300;2023-04-25T02:11:53;14.90;42.10
67557;DHT22;54387;53.526;49.300;2023-04-25T02:14:19;14.90;42.10
67557;DHT22;54387;53.526;49.300;2023-04-25T02:16:46;15.00;42.10
67557;DHT22;54387;53.526;49.300;2023-04-25T02:19:12;15.00;42.10
67557;DHT22;54387;53.526;49.300;2023-04-25T02:21:39;15.00;42.10
67557;DHT22;54387;53.526;49.300;2023-04-25T02:24:05;15.00;42.20
67557;DHT22;54387;53.526;49.300;2023-04-25T02:26:31;15.00;42.30
67557;DHT22;54387;53.526;49.300;2023-04-25T02:28:58;15.10;42.30
67557;DHT22;54387;53.526;49.300;2023-04-25T02:31:24;15.10;42.40
67557;DHT22;54387;53.526;49.300;2023-04-25T02:33:51;15.10;42.60
67557;DHT22;54387;53.526;49.300;2023-04-25T02:36:17;15.10;42.80
67557;DHT22;54387;53.526;49.300;2023-04-25T02:38:43;15.20;42.70
67557;DHT22;54387;53.526;49.300;2023-04-25T02:41:09;15.20;42.90
67557;DHT22;54387;53.526;49.300;2023-04-25T02:43:36;15.20;43.20
67557;DHT22;54387;53.526;49.300;2023-04-25T02:46:02;15.20;43.40
67557;DHT22;54387;53.526;49.300;2023-04-25T02:48:29;15.30;43.90
67557;DHT22;54387;53.526;49.300;2023-04-25T02:50:55;15.30;44.30
67557;DHT22;54387;53.526;49.300;2023-04-25T02:53:21;15.30;44.70
67557;DHT22;54387;53.526;49.300;2023-04-25T02:55:47;15.30;45.00
67557;DHT22;54387;53.526;49.300;2023-04-25T02:58:13;15.30;45.20
67557;DHT22;54387;53.526;49.300;2023-04-25T03:00:41;15.30;45.30
67557;DHT22;54387;53.526;49.300;2023-04-25T03:03:07;15.30;45.50
67557;DHT22;54387;53.526;49.300;2023-04-25T03:05:33;15.30;45.60
67557;DHT22;54387;53.526;49.300;2023-04-25T03:07:59;15.40;45.60
67557;DHT22;54387;53.526;49.300;2023-04-25T03:10:25;15.40;45.80
67557;DHT22;54387;53.526;49.300;2023-04-25T03:12:51;15.40;45.80
67557;DHT22;54387;53.526;49.300;2023-04-25T03:15:17;15.40;45.80
67557;DHT22;54387;53.526;49.300;2023-04-25T03:17:43;15.50;46.00
67557;DHT22;54387;53.526;49.300;2023-04-25T03:20:09;15.50;45.90
67557;DHT22;54387;53.526;49.300;2023-04-25T03:22:36;15.50;45.80
67557;DHT22;54387;53.526;49.300;2023-04-25T03:25:02;15.60;45.80
67557;DHT22;54387;53.526;49.300;2023-04-25T03:27:28;15.60;45.90
67557;DHT22;54387;53.526;49.300;2023-04-25T03:29:54;15.60;46.00
67557;DHT22;54387;53.526;49.300;2023-04-25T03:32:20;15.60;45.90
67557;DHT22;54387;53.526;49.300;2023-04-25T03:34:46;15.70;46.10
67557;DHT22;54387;53.526;49.300;2023-04-25T03:37:12;15.70;46.30
67557;DHT22;54387;53.526;49.300;2023-04-25T03:39:38;15.70;46.20
67557;DHT22;54387;53.526;49.300;2023-04-25T03:42:04;15.80;46.30
67557;DHT22;54387;53.526;49.300;2023-04-25T03:44:30;15.80;46.10
67557;DHT22;54387;53.526;49.300;2023-04-25T03:46:57;15.80;46.30
67557;DHT22;54387;53.526;49.300;2023-04-25T03:49:23;15.80;46.30
67557;DHT22;54387;53.526;49.300;2023-04-25T03:51:49;15.80;46.40
67557;DHT22;54387;53.526;49.300;2023-04-25T03:54:15;15.80;46.40
67557;DHT22;54387;53.526;49.300;2023-04-25T03:56:41;15.80;46.60
67557;DHT22;54387;53.526;49.300;2023-04-25T03:59:07;15.80;46.70
67557;DHT22;54387;53.526;49.300;2023-04-25T04:01:33;15.70;47.70
67557;DHT22;54387;53.526;49.300;2023-04-25T04:03:59;15.60;46.90
67557;DHT22;54387;53.526;49.300;2023-04-25T04:06:25;15.60;47.30
67557;DHT22;54387;53.526;49.300;2023-04-25T04:08:52;15.50;47.40
67557;DHT22;54387;53.526;49.300;2023-04-25T04:11:18;15.50;47.50
67557;DHT22;54387;53.526;49.300;2023-04-25T04:13:44;15.60;47.50
67557;DHT22;54387;53.526;49.300;2023-04-25T04:16:10;15.60;47.50
67557;DHT22;54387;53.526;49.300;2023-04-25T04:18:36;15.70;47.50
67557;DHT22;54387;53.526;49.300;2023-04-25T04:21:02;15.80;47.50
67557;DHT22;54387;53.526;49.300;2023-04-25T04:23:29;15.90;48.30
67557;DHT22;54387;53.526;49.300;2023-04-25T04:25:55;16.00;47.10
67557;DHT22;54387;53.526;49.300;2023-04-25T04:28:21;16.10;47.20
67557;DHT22;54387;53.526;49.300;2023-04-25T04:30:48;16.20;47.20
67557;DHT22;54387;53.526;49.300;2023-04-25T04:33:16;16.40;47.30
67557;DHT22;54387;53.526;49.300;2023-04-25T04:35:44;16.50;47.00
67557;DHT22;54387;53.526;49.300;2023-04-25T04:38:10;16.70;46.90
67557;DHT22;54387;53.526;49.300;2023-04-25T04:40:37;16.90;46.60
67557;DHT22;54387;53.526;49.300;2023-04-25T04:43:03;17.20;46.50
67557;DHT22;54387;53.526;49.300;2023-04-25T04:45:29;17.30;46.60
67557;DHT22;54387;53.526;49.300;2023-04-25T04:47:56;17.50;45.80
67557;DHT22;54387;53.526;49.300;2023-04-25T04:50:22;17.50;45.50
67557;DHT22;54387;53.526;49.300;2023-04-25T04:52:49;17.60;45.40
67557;DHT22;54387;53.526;49.300;2023-04-25T04:55:15;17.70;45.30
67557;DHT22;54387;53.526;49.300;2023-04-25T04:57:42;17.70;45.20
67557;DHT22;54387;53.526;49.300;2023-04-25T05:00:08;17.80;45.00
67557;DHT22;54387;53.526;49.300;2023-04-25T05:02:37;18.00;45.00
67557;DHT22;54387;53.526;49.300;2023-04-25T05:05:04;18.00;44.80
67557;DHT22;54387;53.526;49.300;2023-04-25T05:07:31;18.10;44.60
67557;DHT22;54387;53.526;49.300;2023-04-25T05:09:57;18.20;44.60
67557;DHT22;54387;53.526;49.300;2023-04-25T05:12:23;18.30;44.60
67557;DHT22;54387;53.526;49.300;2023-04-25T05:14:49;18.30;44.60
67557;DHT22;54387;53.526;49.300;2023-04-25T05:17:16;18.30;44.40
67557;DHT22;54387;53.526;49.300;2023-04-25T05:19:43;18.40;44.30
67557;DHT22;54387;53.526;49.300;2023-04-25T05:22:09;18.50;44.10
67557;DHT22;54387;53.526;49.300;2023-04-25T05:24:35;18.60;44.10
67557;DHT22;54387;53.526;49.300;2023-04-25T05:27:02;18.50;44.10
67557;DHT22;54387;53.526;49.300;2023-04-25T05:29:28;18.50;44.10
67557;DHT22;54387;53.526;49.300;2023-04-25T05:31:54;18.50;44.10
67557;DHT22;54387;53.526;49.300;2023-04-25T05:34:21;18.50;44.00
67557;DHT22;54387;53.526;49.300;2023-04-25T05:36:47;18.50;43.70
67557;DHT22;54387;53.526;49.300;2023-04-25T05:39:15;18.50;43.70
67557;DHT22;54387;53.526;49.300;2023-04-25T05:41:42;18.50;43.50
67557;DHT22;54387;53.526;49.300;2023-04-25T05:44:09;18.60;43.30
67557;DHT22;54387;53.526;49.300;2023-04-25T05:46:35;18.70;43.10
67557;DHT22;54387;53.526;49.300;2023-04-25T05:49:01;18.80;42.80
67557;DHT22;54387;53.526;49.300;2023-04-25T05:51:29;18.90;42.60
67557;DHT22;54387;53.526;49.300;2023-04-25T05:53:55;19.00;42.40
67557;DHT22;54387;53.526;49.300;2023-04-25T05:56:21;19.10;42.40
67557;DHT22;54387;53.526;49.300;2023-04-25T05:58:47;19.10;42.10
67557;DHT22;54387;53.526;49.300;2023-04-25T06:01:16;19.20;42.10
67557;DHT22;54387;53.526;49.300;2023-04-25T06:03:43;19.30;42.00
67557;DHT22;54387;53.526;49.300;2023-04-25T06:06:12;19.50;41.80
67557;DHT22;54387;53.526;49.300;2023-04-25T06:08:41;19.60;41.40
67557;DHT22;54387;53.526;49.300;2023-04-25T06:11:08;19.70;41.30
67557;DHT22;54387;53.526;49.300;2023-04-25T06:13:34;19.80;41.80
67557;DHT22;54387;53.526;49.300;2023-04-25T06:16:07;19.90;41.10
67557;DHT22;54387;53.526;49.300;2023-04-25T06:19:12;19.90;40.90
67557;DHT22;54387;53.526;49.300;2023-04-25T06:21:52;20.00;41.10
67557;DHT22;54387;53.526;49.300;2023-04-25T06:24:25;20.00;41.20
67557;DHT22;54387;53.526;49.300;2023-04-25T06:26:54;20.10;41.20
67557;DHT22;54387;53.526;49.300;2023-04-25T06:29:23;20.00;40.90
67557;DHT22;54387;53.526;49.300;2023-04-25T06:31:57;20.00;41.00
67557;DHT22;54387;53.526;49.300;2023-04-25T06:34:31;20.00;41.00
67557;DHT22;54387;53.526;49.300;2023-04-25T06:37:00;20.00;41.00
67557;DHT22;54387;53.526;49.300;2023-04-25T06:39:28;19.90;41.00
67557;DHT22;54387;53.526;49.300;2023-04-25T06:41:54;19.80;41.00
67557;DHT22;54387;53.526;49.300;2023-04-25T06:44:20;19.70;41.00
67557;DHT22;54387;53.526;49.300;2023-04-25T06:46:51;19.60;42.00
67557;DHT22;54387;53.526;49.300;2023-04-25T06:49:17;19.50;41.30
67557;DHT22;54387;53.526;49.300;2023-04-25T06:51:43;19.40;41.50
67557;DHT22;54387;53.526;49.300;2023-04-25T06:54:10;19.30;41.70
67557;DHT22;54387;53.526;49.300;2023-04-25T06:56:36;19.30;41.80
67557;DHT22;54387;53.526;49.300;2023-04-25T06:59:02;19.30;41.90
67557;DHT22;54387;53.526;49.300;2023-04-25T07:01:28;19.30;41.80
67557;DHT22;54387;53.526;49.300;2023-04-25T07:03:59;19.30;41.90
67557;DHT22;54387;53.526;49.300;2023-04-25T07:06:26;19.20;41.90
67557;DHT22;54387;53.526;49.300;2023-04-25T07:09:10;19.10;42.10
67557;DHT22;54387;53.526;49.300;2023-04-25T07:11:40;19.00;42.50
67557;DHT22;54387;53.526;49.300;2023-04-25T07:14:10;18.90;42.70
67557;DHT22;54387;53.526;49.300;2023-04-25T07:16:36;18.90;43.10
67557;DHT22;54387;53.526;49.300;2023-04-25T07:19:03;18.80;43.50
67557;DHT22;54387;53.526;49.300;2023-04-25T07:21:29;18.80;44.00
67557;DHT22;54387;53.526;49.300;2023-04-25T07:23:57;18.80;44.00
67557;DHT22;54387;53.526;49.300;2023-04-25T07:26:23;18.80;43.90
67557;DHT22;54387;53.526;49.300;2023-04-25T07:28:49;18.80;43.80
67557;DHT22;54387;53.526;49.300;2023-04-25T07:31:17;18.90;43.70
67557;DHT22;54387;53.526;49.300;2023-04-25T07:33:44;19.00;43.70
67557;DHT22;54387;53.526;49.300;2023-04-25T07:36:11;19.10;43.60
67557;DHT22;54387;53.526;49.300;2023-04-25T07:38:38;19.10;43.60
67557;DHT22;54387;53.526;49.300;2023-04-25T07:41:04;19.10;43.50
67557;DHT22;54387;53.526;49.300;2023-04-25T07:43:30;19.10;43.60
67557;DHT22;54387;53.526;49.300;2023-04-25T07:45:56;19.10;43.60
67557;DHT22;54387;53.526;49.300;2023-04-25T07:48:23;19.20;43.60
67557;DHT22;54387;53.526;49.300;2023-04-25T07:50:49;19.20;43.60
67557;DHT22;54387;53.526;49.300;2023-04-25T07:53:16;19.30;43.70
67557;DHT22;54387;53.526;49.300;2023-04-25T07:55:43;19.30;43.70
67557;DHT22;54387;53.526;49.300;2023-04-25T07:58:10;19.20;43.70
67557;DHT22;54387;53.526;49.300;2023-04-25T08:00:37;19.20;43.80
67557;DHT22;54387;53.526;49.300;2023-04-25T08:03:04;19.10;43.80
67557;DHT22;54387;53.526;49.300;2023-04-25T08:05:30;19.10;43.80
67557;DHT22;54387;53.526;49.300;2023-04-25T08:07:56;19.10;43.60
67557;DHT22;54387;53.526;49.300;2023-04-25T08:10:22;19.00;43.50
67557;DHT22;54387;53.526;49.300;2023-04-25T08:12:49;18.90;43.50
67557;DHT22;54387;53.526;49.300;2023-04-25T08:15:15;19.00;43.60
67557;DHT22;54387;53.526;49.300;2023-04-25T08:17:41;19.00;43.50
67557;DHT22;54387;53.526;49.300;2023-04-25T08:20:09;19.10;43.70
67557;DHT22;54387;53.526;49.300;2023-04-25T08:22:36;19.10;43.50
67557;DHT22;54387;53.526;49.300;2023-04-25T08:25:03;19.10;43.00
67557;DHT22;54387;53.526;49.300;2023-04-25T08:27:29;19.10;42.70
67557;DHT22;54387;53.526;49.300;2023-04-25T08:29:56;19.10;42.80
67557;DHT22;54387;53.526;49.300;2023-04-25T08:32:24;19.00;42.80
67557;DHT22;54387;53.526;49.300;2023-04-25T08:34:50;19.10;42.80
67557;DHT22;54387;53.526;49.300;2023-04-25T08:37:19;19.10;42.60
67557;DHT22;54387;53.526;49.300;2023-04-25T08:39:46;19.20;42.60
67557;DHT22;54387;53.526;49.300;2023-04-25T08:42:14;19.20;42.40
67557;DHT22;54387;53.526;49.300;2023-04-25T08:44:40;19.20;42.20
67557;DHT22;54387;53.526;49.300;2023-04-25T08:47:07;19.30;42.10
67557;DHT22;54387;53.526;49.300;2023-04-25T08:49:34;19.30;41.90
67557;DHT22;54387;53.526;49.300;2023-04-25T08:52:02;19.30;41.80
67557;DHT22;54387;53.526;49.300;2023-04-25T08:54:29;19.30;41.90
67557;DHT22;54387;53.526;49.300;2023-04-25T08:56:57;19.30;42.00
67557;DHT22;54387;53.526;49.300;2023-04-25T08:59:28;19.30;42.00
67557;DHT22;54387;53.526;49.300;2023-04-25T09:01:54;19.30;42.10
67557;DHT22;54387;53.526;49.300;2023-04-25T09:04:21;19.30;42.10
67557;DHT22;54387;53.526;49.300;2023-04-25T09:06:47;19.40;42.10
67557;DHT22;54387;53.526;49.300;2023-04-25T09:09:14;19.30;42.10
67557;DHT22;54387;53.526;49.300;2023-04-25T09:11:40;19.30;42.40
67557;DHT22;54387;53.526;49.300;2023-04-25T09:14:17;19.30;42.60
67557;DHT22;54387;53.526;49.300;2023-04-25T09:19:22;19.40;42.60
67557;DHT22;54387;53.526;49.300;2023-04-25T09:21:49;19.50;42.60
67557;DHT22;54387;53.526;49.300;2023-04-25T09:24:15;19.50;42.50
67557;DHT22;54387;53.526;49.300;2023-04-25T09:26:42;19.60;42.70
67557;DHT22;54387;53.526;49.300;2023-04-25T09:29:09;19.50;42.70
67557;DHT22;54387;53.526;49.300;2023-04-25T09:31:36;19.60;42.90
67557;DHT22;54387;53.526;49.300;2023-04-25T09:34:03;19.60;42.90
67557;DHT22;54387;53.526;49.300;2023-04-25T09:36:29;19.70;43.50
67557;DHT22;54387;53.526;49.300;2023-04-25T09:38:57;19.70;43.10
67557;DHT22;54387;53.526;49.300;2023-04-25T09:41:25;19.70;43.30
67557;DHT22;54387;53.526;49.300;2023-04-25T09:43:51;19.70;43.20
67557;DHT22;54387;53.526;49.300;2023-04-25T09:46:17;19.70;43.90
67557;DHT22;54387;53.526;49.300;2023-04-25T09:48:50;19.60;44.00
67557;DHT22;54387;53.526;49.300;2023-04-25T09:51:16;19.60;44.20
67557;DHT22;54387;53.526;49.300;2023-04-25T09:53:44;19.50;44.40
67557;DHT22;54387;53.526;49.300;2023-04-25T09:56:12;19.40;44.60
67557;DHT22;54387;53.526;49.300;2023-04-25T09:58:39;19.40;44.60
67557;DHT22;54387;53.526;49.300;2023-04-25T10:01:06;19.30;44.70
67557;DHT22;54387;53.526;49.300;2023-04-25T10:03:34;19.30;44.90
67557;DHT22;54387;53.526;49.300;2023-04-25T10:06:01;19.20;45.20
67557;DHT22;54387;53.526;49.300;2023-04-25T10:08:32;19.10;45.50
67557;DHT22;54387;53.526;49.300;2023-04-25T10:11:00;19.00;45.70
67557;DHT22;54387;53.526;49.300;2023-04-25T10:13:27;18.90;46.30
67557;DHT22;54387;53.526;49.300;2023-04-25T10:15:54;18.90;46.60
67557;DHT22;54387;53.526;49.300;2023-04-25T10:18:21;18.80;47.00
67557;DHT22;54387;53.526;49.300;2023-04-25T10:20:47;18.60;47.50
67557;DHT22;54387;53.526;49.300;2023-04-25T10:23:14;18.40;47.60
67557;DHT22;54387;53.526;49.300;2023-04-25T10:25:41;18.30;48.10
67557;DHT22;54387;53.526;49.300;2023-04-25T10:28:07;18.20;48.30
67557;DHT22;54387;53.526;49.300;2023-04-25T10:30:34;18.10;48.70
67557;DHT22;54387;53.526;49.300;2023-04-25T10:33:00;18.00;48.90
67557;DHT22;54387;53.526;49.300;2023-04-25T10:35:29;17.90;49.10
67557;DHT22;54387;53.526;49.300;2023-04-25T10:38:03;17.80;49.20
67557;DHT22;54387;53.526;49.300;2023-04-25T10:40:31;17.80;49.30
67557;DHT22;54387;53.526;49.300;2023-04-25T10:45:52;17.70;49.80
67557;DHT22;54387;53.526;49.300;2023-04-25T10:48:25;17.70;49.90
67557;DHT22;54387;53.526;49.300;2023-04-25T10:51:06;17.60;50.30
67557;DHT22;54387;53.526;49.300;2023-04-25T10:53:35;17.60;50.30
67557;DHT22;54387;53.526;49.300;2023-04-25T10:56:11;17.50;50.40
67557;DHT22;54387;53.526;49.300;2023-04-25T10:58:41;17.50;50.50
67557;DHT22;54387;53.526;49.300;2023-04-25T11:01:08;17.50;50.90
67557;DHT22;54387;53.526;49.300;2023-04-25T11:03:38;17.40;51.10
67557;DHT22;54387;53.526;49.300;2023-04-25T11:06:04;17.40;51.50
67557;DHT22;54387;53.526;49.300;2023-04-25T11:08:37;17.30;51.70
67557;DHT22;54387;53.526;49.300;2023-04-25T11:11:12;17.30;51.70
67557;DHT22;54387;53.526;49.300;2023-04-25T11:13:38;17.20;51.60
67557;DHT22;54387;53.526;49.300;2023-04-25T11:16:06;17.20;51.80
67557;DHT22;54387;53.526;49.300;2023-04-25T11:18:33;17.20;51.80
67557;DHT22;54387;53.526;49.300;2023-04-25T11:21:00;17.10;52.00
67557;DHT22;54387;53.526;49.300;2023-04-25T11:23:26;17.10;52.00
67557;DHT22;54387;53.526;49.300;2023-04-25T11:25:53;17.10;52.20
67557;DHT22;54387;53.526;49.300;2023-04-25T11:28:22;17.10;52.30
67557;DHT22;54387;53.526;49.300;2023-04-25T11:30:49;17.10;52.40
67557;DHT22;54387;53.526;49.300;2023-04-25T11:33:22;17.10;52.60
67557;DHT22;54387;53.526;49.300;2023-04-25T11:35:49;17.10;52.70
67557;DHT22;54387;53.526;49.300;2023-04-25T11:38:15;17.10;52.90
67557;DHT22;54387;53.526;49.300;2023-04-25T11:40:41;17.00;53.30
67557;DHT22;54387;53.526;49.300;2023-04-25T11:43:07;16.90;53.30
67557;DHT22;54387;53.526;49.300;2023-04-25T11:45:36;16.90;53.50
67557;DHT22;54387;53.526;49.300;2023-04-25T11:48:03;16.90;54.00
67557;DHT22;54387;53.526;49.300;2023-04-25T11:50:29;16.80;53.90
67557;DHT22;54387;53.526;49.300;2023-04-25T11:52:56;16.80;54.10
67557;DHT22;54387;53.526;49.300;2023-04-25T11:55:24;16.80;54.20
67557;DHT22;54387;53.526;49.300;2023-04-25T11:57:50;16.80;54.30
67557;DHT22;54387;53.526;49.300;2023-04-25T12:00:20;16.70;54.70
67557;DHT22;54387;53.526;49.300;2023-04-25T12:02:47;16.70;54.90
67557;DHT22;54387;53.526;49.300;2023-04-25T12:05:16;16.60;55.10
67557;DHT22;54387;53.526;49.300;2023-04-25T12:07:43;16.50;55.20
67557;DHT22;54387;53.526;49.300;2023-04-25T12:10:10;16.50;55.60
67557;DHT22;54387;53.526;49.300;2023-04-25T12:12:38;16.40;55.60
67557;DHT22;54387;53.526;49.300;2023-04-25T12:15:13;16.40;56.00
67557;DHT22;54387;53.526;49.300;2023-04-25T12:17:41;16.30;56.20
67557;DHT22;54387;53.526;49.300;2023-04-25T12:20:15;16.30;56.50
67557;DHT22;54387;53.526;49.300;2023-04-25T12:22:45;16.30;56.90
67557;DHT22;54387;53.526;49.300;2023-04-25T12:25:12;16.20;57.20
67557;DHT22;54387;53.526;49.300;2023-04-25T12:27:39;16.10;57.60
67557;DHT22;54387;53.526;49.300;2023-04-25T12:30:09;16.10;58.00
67557;DHT22;54387;53.526;49.300;2023-04-25T12:32:36;16.00;58.10
67557;DHT22;54387;53.526;49.300;2023-04-25T12:35:04;16.00;58.30
67557;DHT22;54387;53.526;49.300;2023-04-25T12:37:31;16.00;58.60
67557;DHT22;54387;53.526;49.300;2023-04-25T12:39:57;16.00;58.70
67557;DHT22;54387;53.526;49.300;2023-04-25T12:42:24;15.90;58.90
67557;DHT22;54387;53.526;49.300;2023-04-25T12:44:50;15.90;59.00
67557;DHT22;54387;53.526;49.300;2023-04-25T12:47:16;15.90;59.30
67557;DHT22;54387;53.526;49.300;2023-04-25T12:49:43;15.90;59.50
67557;DHT22;54387;53.526;49.300;2023-04-25T12:52:09;15.90;59.70
67557;DHT22;54387;53.526;49.300;2023-04-25T12:54:35;15.90;59.90
67557;DHT22;54387;53.526;49.300;2023-04-25T12:57:02;15.90;60.00
67557;DHT22;54387;53.526;49.300;2023-04-25T12:59:28;15.90;60.10
67557;DHT22;54387;53.526;49.300;2023-04-25T13:01:55;15.90;60.20
67557;DHT22;54387;53.526;49.300;2023-04-25T13:04:21;15.80;60.30
67557;DHT22;54387;53.526;49.300;2023-04-25T13:06:47;15.80;60.30
67557;DHT22;54387;53.526;49.300;2023-04-25T13:09:13;15.80;60.50
67557;DHT22;54387;53.526;49.300;2023-04-25T13:11:41;15.60;60.70
67557;DHT22;54387;53.526;49.300;2023-04-25T13:14:07;15.60;60.90
67557;DHT22;54387;53.526;49.300;2023-04-25T13:16:33;15.50;61.20
67557;DHT22;54387;53.526;49.300;2023-04-25T13:19:00;15.40;61.30
67557;DHT22;54387;53.526;49.300;2023-04-25T13:21:26;15.40;62.00
67557;DHT22;54387;53.526;49.300;2023-04-25T13:23:52;15.40;61.50
67557;DHT22;54387;53.526;49.300;2023-04-25T13:26:19;15.40;61.80
67557;DHT22;54387;53.526;49.300;2023-04-25T13:28:46;15.40;61.80
67557;DHT22;54387;53.526;49.300;2023-04-25T13:31:13;15.30;61.80
67557;DHT22;54387;53.526;49.300;2023-04-25T13:33:39;15.30;61.80
67557;DHT22;54387;53.526;49.300;2023-04-25T13:36:05;15.30;62.00
67557;DHT22;54387;53.526;49.300;2023-04-25T13:38:32;15.20;62.20
67557;DHT22;54387;53.526;49.300;2023-04-25T13:40:58;15.20;62.30
67557;DHT22;54387;53.526;49.300;2023-04-25T13:43:24;15.20;62.40
67557;DHT22;54387;53.526;49.300;2023-04-25T13:45:51;15.10;62.60
67557;DHT22;54387;53.526;49.300;2023-04-25T13:48:18;15.10;62.70
67557;DHT22;54387;53.526;49.300;2023-04-25T13:50:44;15.10;62.90
67557;DHT22;54387;53.526;49.300;2023-04-25T13:53:11;15.00;63.10
67557;DHT22;54387;53.526;49.300;2023-04-25T13:55:37;15.00;63.50
67557;DHT22;54387;53.526;49.300;2023-04-25T13:58:04;14.90;63.60
67557;DHT22;54387;53.526;49.300;2023-04-25T14:00:34;14.80;63.60
67557;DHT22;54387;53.526;49.300;2023-04-25T14:03:02;14.80;63.60
67557;DHT22;54387;53.526;49.300;2023-04-25T14:05:30;14.80;64.20
67557;DHT22;54387;53.526;49.300;2023-04-25T14:07:57;14.80;63.70
67557;DHT22;54387;53.526;49.300;2023-04-25T14:10:24;14.80;63.70
67557;DHT22;54387;53.526;49.300;2023-04-25T14:12:50;14.80;63.70
67557;DHT22;54387;53.526;49.300;2023-04-25T14:15:17;14.80;63.80
67557;DHT22;54387;53.526;49.300;2023-04-25T14:17:43;14.80;63.90
67557;DHT22;54387;53.526;49.300;2023-04-25T14:20:11;14.70;63.90
67557;DHT22;54387;53.526;49.300;2023-04-25T14:22:37;14.70;63.80
67557;DHT22;54387;53.526;49.300;2023-04-25T14:25:07;14.60;64.00
67557;DHT22;54387;53.526;49.300;2023-04-25T14:27:35;14.60;64.30
67557;DHT22;54387;53.526;49.300;2023-04-25T14:30:02;14.50;64.40
67557;DHT22;54387;53.526;49.300;2023-04-25T14:32:28;14.40;64.50
67557;DHT22;54387;53.526;49.300;2023-04-25T14:34:54;14.40;64.70
67557;DHT22;54387;53.526;49.300;2023-04-25T14:37:21;14.40;64.70
67557;DHT22;54387;53.526;49.300;2023-04-25T14:39:47;14.40;64.80
67557;DHT22;54387;53.526;49.300;2023-04-25T14:42:13;14.40;65.00
67557;DHT22;54387;53.526;49.300;2023-04-25T14:44:39;14.30;65.20
67557;DHT22;54387;53.526;49.300;2023-04-25T14:47:06;14.30;65.20
67557;DHT22;54387;53.526;49.300;2023-04-25T14:49:32;14.30;65.20
67557;DHT22;54387;53.526;49.300;2023-04-25T14:51:58;14.20;65.50
67557;DHT22;54387;53.526;49.300;2023-04-25T14:54:25;14.20;65.50
67557;DHT22;54387;53.526;49.300;2023-04-25T14:56:51;14.20;65.60
67557;DHT22;54387;53.526;49.300;2023-04-25T14:59:18;14.10;65.60
67557;DHT22;54387;53.526;49.300;2023-04-25T15:01:45;14.10;65.80
67557;DHT22;54387;53.526;49.300;2023-04-25T15:04:11;14.10;65.90
67557;DHT22;54387;53.526;49.300;2023-04-25T15:06:38;14.00;66.10
67557;DHT22;54387;53.526;49.300;2023-04-25T15:09:04;14.00;66.20
67557;DHT22;54387;53.526;49.300;2023-04-25T15:11:30;14.00;66.50
67557;DHT22;54387;53.526;49.300;2023-04-25T15:13:56;14.00;66.80
67557;DHT22;54387;53.526;49.300;2023-04-25T15:16:22;13.90;66.70
67557;DHT22;54387;53.526;49.300;2023-04-25T15:18:48;13.90;66.80
67557;DHT22;54387;53.526;49.300;2023-04-25T15:21:15;13.90;66.90